Cowan, Indiana
Current Conditions -  °F | °C
As of 2:53 AM on Thursday 27 Nov 2014 (Local Time) from KMIE Reporting Station
Overcast Overcast  
Wind Chill: 19°   Ceiling: 2600
Heat Index: 28°   Visibility: 8mi
Dew Point: 22°   Wind: 10mph
Humidity: 78%   Direction: 340°NNW
Pressure: 30.12"   Gusts: NA
Location:  40.1286°N, 85.3767°W
Report Text: KMIE 270753Z AUTO 34009KT 8SM OVC026 M02/M06 A3012 RMK AO2 SLP206 T10221056
Loading
Personal Weather Stations






























Interactive Weather Map New forecast layout! Learn more

10-Day Weather Forecast

Advertisements
Track Severe Weather on mobile